createdAt,value
2023-05-24T00:00:58.727Z,41.2
2023-05-24T00:02:11.270Z,41.2
2023-05-24T00:03:25.366Z,41.3
2023-05-24T00:04:28.188Z,41.2
2023-05-24T00:05:41.697Z,41.2
2023-05-24T00:06:54.265Z,41.2
2023-05-24T00:07:57.676Z,41.2
2023-05-24T00:09:10.187Z,41.3
2023-05-24T00:10:23.701Z,41.2
2023-05-24T00:11:26.292Z,41.1
2023-05-24T00:12:39.681Z,41.1
2023-05-24T00:13:52.178Z,41.1
2023-05-24T00:14:55.665Z,41.1
2023-05-24T00:16:08.223Z,41.1
2023-05-24T00:17:21.674Z,41.1
2023-05-24T00:18:24.289Z,41.2
2023-05-24T00:19:37.671Z,41.2
2023-05-24T00:20:50.229Z,41.2
2023-05-24T00:22:03.697Z,41.1
2023-05-24T00:23:06.273Z,41.3
2023-05-24T00:24:19.702Z,41.2
2023-05-24T00:25:32.297Z,41.2
2023-05-24T00:26:36.202Z,41.2
2023-05-24T00:27:48.775Z,41.1
2023-05-24T00:29:02.192Z,41.2
2023-05-24T00:30:04.761Z,41.1
2023-05-24T00:31:18.228Z,41.1
2023-05-24T00:32:30.808Z,41.1
2023-05-24T00:33:44.202Z,41.1
2023-05-24T00:34:46.770Z,41.2
2023-05-24T00:36:00.195Z,41.2
2023-05-24T00:37:12.733Z,41.2
2023-05-24T00:38:16.176Z,41.1
2023-05-24T00:39:28.761Z,41.1
2023-05-24T00:40:42.379Z,41.1
2023-05-24T00:41:45.101Z,41.2
2023-05-24T00:42:58.676Z,41.2
2023-05-24T00:44:11.308Z,41.2
2023-05-24T00:45:14.680Z,41.1
2023-05-24T00:46:27.322Z,41.1
2023-05-24T00:47:40.741Z,41.3
2023-05-24T00:48:43.318Z,41.2
2023-05-24T00:49:56.678Z,41.1
2023-05-24T00:51:09.172Z,41.2
2023-05-24T00:52:22.689Z,41.2
2023-05-24T00:53:25.266Z,41.2
2023-05-24T00:54:38.659Z,41.3
2023-05-24T00:55:51.255Z,41.2
2023-05-24T00:56:54.662Z,41.2
2023-05-24T00:58:07.160Z,41.1
2023-05-24T00:59:20.705Z,41.1
2023-05-24T01:00:23.318Z,41.2
2023-05-24T01:01:36.727Z,41.2
2023-05-24T01:02:50.716Z,41.2
2023-05-24T01:03:54.852Z,41.4
2023-05-24T01:05:07.483Z,41.4
2023-05-24T01:06:20.711Z,41.3
2023-05-24T01:07:23.380Z,41.2
2023-05-24T01:08:38.754Z,41.2
2023-05-24T01:09:51.443Z,41.3
2023-05-24T01:10:54.688Z,41.2
2023-05-24T01:12:07.201Z,41.2
2023-05-24T01:13:20.698Z,41.2
2023-05-24T01:14:23.317Z,41.2
2023-05-24T01:15:36.705Z,41.3
2023-05-24T01:16:49.223Z,41.2
2023-05-24T01:18:02.771Z,41.3
2023-05-24T01:19:05.421Z,41.4
2023-05-24T01:20:18.777Z,41.4
2023-05-24T01:21:31.447Z,41.4
2023-05-24T01:22:35.231Z,41.4
2023-05-24T01:23:47.753Z,41.5
2023-05-24T01:25:01.210Z,41.5
2023-05-24T01:26:03.835Z,41.5
2023-05-24T01:27:17.199Z,41.5
2023-05-24T01:28:29.766Z,41.4
2023-05-24T01:29:33.209Z,41.5
2023-05-24T01:31:05.297Z,41.4
2023-05-24T01:31:59.214Z,41.4
2023-05-24T01:33:11.729Z,41.4
2023-05-24T01:34:15.216Z,41.4
2023-05-24T01:35:27.748Z,41.4
2023-05-24T01:36:41.229Z,41.6
2023-05-24T01:37:43.836Z,41.5
2023-05-24T01:38:57.208Z,41.5
2023-05-24T01:40:09.688Z,41.5
2023-05-24T01:41:12.682Z,41.5
2023-05-24T01:42:24.991Z,41.5
2023-05-24T01:43:38.217Z,41.5
2023-05-24T01:44:50.626Z,41.5
2023-05-24T01:45:53.719Z,41.5
2023-05-24T01:47:06.107Z,41.6
2023-05-24T01:48:19.694Z,41.5
2023-05-24T01:49:22.291Z,41.6
2023-05-24T01:50:35.662Z,41.6
2023-05-24T01:51:48.230Z,41.6
2023-05-24T01:52:51.679Z,41.6
2023-05-24T01:54:04.216Z,41.5
2023-05-24T01:55:17.710Z,41.5
2023-05-24T01:56:30.263Z,41.5
2023-05-24T01:57:33.701Z,41.5
2023-05-24T01:58:46.236Z,41.5
2023-05-24T01:59:59.680Z,41.5
2023-05-24T02:01:02.341Z,41.6
2023-05-24T02:02:15.679Z,41.6
2023-05-24T02:03:28.234Z,41.5
2023-05-24T02:04:31.706Z,41.6
2023-05-24T02:05:44.257Z,41.5
2023-05-24T02:06:59.147Z,41.5
2023-05-24T02:08:01.780Z,41.6
2023-05-24T02:09:15.216Z,41.6
2023-05-24T02:10:27.806Z,41.6
2023-05-24T02:11:31.206Z,41.7
2023-05-24T02:12:43.726Z,41.6
2023-05-24T02:13:57.230Z,41.5
2023-05-24T02:14:59.833Z,41.6
2023-05-24T02:16:13.346Z,41.6
2023-05-24T02:17:26.022Z,41.6
2023-05-24T02:18:39.710Z,41.5
2023-05-24T02:19:42.253Z,41.6
2023-05-24T02:20:55.224Z,41.6
2023-05-24T02:22:07.512Z,41.6
2023-05-24T02:23:10.718Z,41.6
2023-05-24T02:24:23.042Z,41.6
2023-05-24T02:25:36.199Z,41.6
2023-05-24T02:26:38.806Z,41.6
2023-05-24T02:27:52.236Z,41.6
2023-05-24T02:29:04.754Z,41.7
2023-05-24T02:30:18.213Z,41.6
2023-05-24T02:31:20.832Z,41.6
2023-05-24T02:32:34.217Z,41.6
2023-05-24T02:33:46.886Z,41.6
2023-05-24T02:34:50.218Z,41.6
2023-05-24T02:36:02.745Z,41.6
2023-05-24T02:37:16.214Z,41.6
2023-05-24T02:38:18.852Z,41.6
2023-05-24T02:39:32.184Z,41.6
2023-05-24T02:40:44.912Z,41.6
2023-05-24T02:41:48.743Z,41.6
2023-05-24T02:43:01.285Z,41.6
2023-05-24T02:44:14.723Z,41.6
2023-05-24T02:45:17.327Z,41.6
2023-05-24T02:46:30.780Z,41.5
2023-05-24T02:47:43.459Z,41.6
2023-05-24T02:48:56.717Z,41.7
2023-05-24T02:49:59.370Z,41.6
2023-05-24T02:51:12.704Z,41.7
2023-05-24T02:52:25.267Z,41.7
2023-05-24T02:53:28.707Z,41.7
2023-05-24T02:54:41.252Z,41.7
2023-05-24T02:55:54.718Z,41.6
2023-05-24T02:56:57.365Z,41.5
2023-05-24T02:58:11.243Z,41.6
2023-05-24T02:59:23.791Z,41.6
2023-05-24T03:00:37.195Z,41.6
2023-05-24T03:01:39.820Z,41.6
2023-05-24T03:02:53.308Z,41.6
2023-05-24T03:04:05.978Z,41.6
2023-05-24T03:05:09.699Z,41.6
2023-05-24T03:06:22.263Z,41.6
2023-05-24T03:07:35.720Z,41.6
2023-05-24T03:08:38.355Z,41.6
2023-05-24T03:09:51.739Z,41.6
2023-05-24T03:11:04.341Z,41.6
2023-05-24T03:12:07.734Z,41.6
2023-05-24T03:13:20.288Z,41.6
2023-05-24T03:14:33.721Z,41.6
2023-05-24T03:15:36.337Z,41.6
2023-05-24T03:16:49.707Z,41.6
2023-05-24T03:18:02.353Z,41.6
2023-05-24T03:19:15.727Z,41.6
2023-05-24T03:20:18.373Z,41.6
2023-05-24T03:21:31.727Z,41.6
2023-05-24T03:22:44.268Z,41.6
2023-05-24T03:23:47.735Z,41.6
2023-05-24T03:25:00.338Z,41.5
2023-05-24T03:26:13.716Z,41.5
2023-05-24T03:27:16.325Z,41.6
2023-05-24T03:28:29.731Z,41.6
2023-05-24T03:29:42.296Z,41.5
2023-05-24T03:30:55.789Z,41.5
2023-05-24T03:31:58.455Z,41.6
2023-05-24T03:33:11.731Z,41.6
2023-05-24T03:34:24.224Z,41.5
2023-05-24T03:35:27.740Z,41.3
2023-05-24T03:36:40.181Z,41.1
2023-05-24T03:37:53.249Z,40.9
2023-05-24T03:38:55.778Z,40.7
2023-05-24T03:40:10.739Z,40.5
2023-05-24T03:41:23.132Z,40.3
2023-05-24T03:42:26.253Z,40.1
2023-05-24T03:43:38.610Z,39.9
2023-05-24T03:44:51.718Z,39.8
2023-05-24T03:46:04.190Z,39.6
2023-05-24T03:47:07.730Z,39.5
2023-05-24T03:48:20.022Z,39.3
2023-05-24T03:49:33.213Z,39.2
2023-05-24T03:50:35.741Z,39.1
2023-05-24T03:51:48.753Z,38.9
2023-05-24T03:53:01.151Z,38.9
2023-05-24T03:54:14.260Z,38.7
2023-05-24T03:55:16.674Z,38.6
2023-05-24T03:56:29.717Z,38.6
2023-05-24T03:57:41.970Z,38.6
2023-05-24T03:58:45.217Z,38.5
2023-05-24T03:59:57.536Z,38.4
2023-05-24T04:01:12.666Z,38.4
2023-05-24T04:02:21.452Z,38.3
2023-05-24T04:03:44.531Z,38.3
2023-05-24T04:04:37.255Z,38.2
2023-05-24T04:05:50.252Z,38.2
2023-05-24T04:06:52.675Z,38.3
2023-05-24T04:08:05.753Z,38.6
2023-05-24T04:09:18.046Z,38.7
2023-05-24T04:10:31.230Z,38.5
2023-05-24T04:11:33.587Z,38.6
2023-05-24T04:12:46.725Z,38.6
2023-05-24T04:13:58.956Z,38.8
2023-05-24T04:15:02.234Z,38.8
2023-05-24T04:16:14.537Z,38.9
2023-05-24T04:17:27.969Z,38.9
2023-05-24T04:18:30.676Z,39.0
2023-05-24T04:19:43.749Z,38.9
2023-05-24T04:20:56.032Z,39.0
2023-05-24T04:22:09.238Z,39.0
2023-05-24T04:23:11.643Z,39.0
2023-05-24T04:24:24.766Z,38.9
2023-05-24T04:25:37.004Z,38.9
2023-05-24T04:26:40.272Z,38.8
2023-05-24T04:27:52.495Z,38.9
2023-05-24T04:29:05.777Z,38.9
2023-05-24T04:30:08.298Z,38.8
2023-05-24T04:31:40.770Z,38.8
2023-05-24T04:32:33.401Z,38.8
2023-05-24T04:33:46.759Z,38.8
2023-05-24T04:34:49.180Z,38.7
2023-05-24T04:36:02.281Z,38.8
2023-05-24T04:37:14.774Z,38.7
2023-05-24T04:38:19.111Z,38.6
2023-05-24T04:39:33.145Z,38.7
2023-05-24T04:40:46.232Z,38.7
2023-05-24T04:41:48.649Z,38.9
2023-05-24T04:43:01.753Z,39.0
2023-05-24T04:44:14.049Z,38.9
2023-05-24T04:45:27.226Z,39.0
2023-05-24T04:46:29.625Z,39.1
2023-05-24T04:47:42.804Z,39.1
2023-05-24T04:48:55.309Z,39.2
2023-05-24T04:49:58.750Z,39.2
2023-05-24T04:51:11.087Z,39.1
2023-05-24T04:52:24.274Z,39.2
2023-05-24T04:53:26.747Z,39.1
2023-05-24T04:54:39.738Z,39.1
2023-05-24T04:55:51.963Z,39.2
2023-05-24T04:57:05.283Z,39.2
2023-05-24T04:58:07.649Z,39.2
2023-05-24T04:59:20.758Z,39.2
2023-05-24T05:00:33.048Z,39.1
2023-05-24T05:01:36.280Z,39.1
2023-05-24T05:02:48.676Z,39.1
2023-05-24T05:04:11.324Z,39.3
2023-05-24T05:05:03.849Z,39.5
2023-05-24T05:06:16.763Z,39.6
2023-05-24T05:07:29.028Z,39.6
2023-05-24T05:08:42.287Z,39.5
2023-05-24T05:09:44.686Z,39.7
2023-05-24T05:10:58.241Z,39.6
2023-05-24T05:12:10.547Z,39.5
2023-05-24T05:13:13.748Z,39.5
2023-05-24T05:14:25.971Z,39.4
2023-05-24T05:15:40.503Z,39.3
2023-05-24T05:16:44.083Z,39.3
2023-05-24T05:17:57.318Z,39.1
2023-05-24T05:19:09.575Z,39.0
2023-05-24T05:20:12.805Z,38.5
2023-05-24T05:21:25.124Z,38.4
2023-05-24T05:22:38.286Z,38.3
2023-05-24T05:23:50.547Z,38.2
2023-05-24T05:24:53.968Z,38.0
2023-05-24T05:26:35.872Z,37.5
2023-05-24T05:27:20.050Z,37.4
2023-05-24T05:28:22.395Z,37.2
2023-05-24T05:29:35.752Z,37.3
2023-05-24T05:30:48.002Z,37.2
2023-05-24T05:31:51.318Z,37.2
2023-05-24T05:33:03.666Z,37.0
2023-05-24T05:34:16.789Z,36.9
2023-05-24T05:35:19.219Z,36.6
2023-05-24T05:36:32.262Z,36.3
2023-05-24T05:37:44.750Z,35.9
2023-05-24T05:38:57.788Z,35.0
2023-05-24T05:40:00.153Z,35.0
2023-05-24T05:41:13.279Z,35.0
2023-05-24T05:42:25.497Z,34.9
2023-05-24T05:43:28.769Z,34.7
2023-05-24T05:44:40.985Z,34.7
2023-05-24T05:45:53.835Z,34.3
2023-05-24T05:47:06.223Z,34.3
2023-05-24T05:48:09.286Z,34.3
2023-05-24T05:49:21.587Z,34.2
2023-05-24T05:50:34.773Z,34.2
2023-05-24T05:51:40.196Z,34.1
2023-05-24T05:52:53.275Z,34.0
2023-05-24T05:54:05.483Z,34.0
2023-05-24T05:55:08.777Z,34.1
2023-05-24T05:56:21.012Z,34.0
2023-05-24T05:57:34.274Z,34.0
2023-05-24T05:58:36.647Z,34.1
2023-05-24T05:59:49.785Z,34.1
2023-05-24T06:01:01.991Z,34.0
2023-05-24T06:02:15.308Z,34.0
2023-05-24T06:03:17.956Z,34.0
2023-05-24T06:04:31.325Z,34.1
2023-05-24T06:05:45.310Z,34.1
2023-05-24T06:06:48.285Z,34.1
2023-05-24T06:08:00.558Z,34.2
2023-05-24T06:09:13.774Z,34.2
2023-05-24T06:10:16.131Z,34.2
2023-05-24T06:11:29.268Z,34.2
2023-05-24T06:12:41.575Z,34.2
2023-05-24T06:13:44.767Z,34.2
2023-05-24T06:14:57.300Z,34.2
2023-05-24T06:16:11.305Z,34.1
2023-05-24T06:17:14.658Z,34.1
2023-05-24T06:18:28.712Z,34.1
2023-05-24T06:19:41.632Z,34.1
2023-05-24T06:20:46.028Z,34.1
2023-05-24T06:21:59.304Z,34.1
2023-05-24T06:23:13.328Z,34.0
2023-05-24T06:24:16.004Z,33.9
2023-05-24T06:25:29.948Z,34.0
2023-05-24T06:26:33.251Z,33.9
2023-05-24T06:27:46.796Z,33.9
2023-05-24T06:28:59.005Z,33.8
2023-05-24T06:30:11.847Z,33.9
2023-05-24T06:31:14.419Z,33.8
2023-05-24T06:32:27.411Z,33.8
2023-05-24T06:33:42.597Z,33.8
2023-05-24T06:34:47.796Z,33.8
2023-05-24T06:36:00.041Z,33.7
2023-05-24T06:37:03.291Z,33.7
2023-05-24T06:38:15.476Z,33.7
2023-05-24T06:39:28.321Z,33.7
2023-05-24T06:40:40.814Z,33.7
2023-05-24T06:41:44.298Z,33.7
2023-05-24T06:42:56.546Z,33.7
2023-05-24T06:44:09.305Z,33.6
2023-05-24T06:45:11.608Z,33.6
2023-05-24T06:46:24.853Z,33.7
2023-05-24T06:47:39.280Z,33.6
2023-05-24T06:48:42.390Z,33.5
2023-05-24T06:49:54.712Z,33.5
2023-05-24T06:51:07.800Z,33.5
2023-05-24T06:52:10.150Z,33.5
2023-05-24T06:53:23.792Z,33.4
2023-05-24T06:54:35.935Z,33.3
2023-05-24T06:55:48.776Z,33.3
2023-05-24T06:56:51.120Z,33.3
2023-05-24T06:58:04.298Z,33.2
2023-05-24T06:59:16.593Z,33.2
2023-05-24T07:00:29.799Z,33.1
2023-05-24T07:01:32.169Z,33.2
2023-05-24T07:02:49.870Z,33.1
2023-05-24T07:03:52.224Z,33.1
2023-05-24T07:05:05.357Z,33.1
2023-05-24T07:06:17.670Z,33.1
2023-05-24T07:07:20.802Z,33.0
2023-05-24T07:08:33.053Z,33.0
2023-05-24T07:09:46.285Z,33.0
2023-05-24T07:10:48.550Z,33.0
2023-05-24T07:12:01.809Z,32.9
2023-05-24T07:13:14.022Z,32.9
2023-05-24T07:14:26.792Z,32.9
2023-05-24T07:15:29.138Z,32.9
2023-05-24T07:16:42.319Z,32.9
2023-05-24T07:17:54.733Z,32.9
2023-05-24T07:19:07.804Z,32.8
2023-05-24T07:20:10.118Z,32.9
2023-05-24T07:21:23.287Z,32.8
2023-05-24T07:22:35.498Z,32.8
2023-05-24T07:23:38.816Z,32.8
2023-05-24T07:24:50.973Z,32.8
2023-05-24T07:26:03.874Z,32.7
2023-05-24T07:27:16.173Z,32.6
2023-05-24T07:28:19.318Z,32.6
2023-05-24T07:29:31.377Z,32.4
2023-05-24T07:30:53.868Z,32.4
2023-05-24T07:31:46.457Z,32.4
2023-05-24T07:32:59.368Z,32.4
2023-05-24T07:34:11.590Z,32.3
2023-05-24T07:35:24.797Z,32.1
2023-05-24T07:36:27.129Z,32.1
2023-05-24T07:37:40.322Z,32.1
2023-05-24T07:38:52.500Z,32.0
2023-05-24T07:40:05.319Z,31.9
2023-05-24T07:41:07.638Z,31.9
2023-05-24T07:42:23.739Z,31.9
2023-05-24T07:43:26.324Z,31.8
2023-05-24T07:44:39.802Z,31.8
2023-05-24T07:45:53.049Z,31.7
2023-05-24T07:46:56.334Z,31.7
2023-05-24T07:48:08.741Z,31.7
2023-05-24T07:49:22.327Z,31.7
2023-05-24T07:50:24.579Z,31.6
2023-05-24T07:51:37.331Z,31.6
2023-05-24T07:52:49.482Z,31.6
2023-05-24T07:54:02.328Z,31.5
2023-05-24T07:55:04.580Z,31.4
2023-05-24T07:56:17.295Z,31.4
2023-05-24T07:57:29.477Z,31.4
2023-05-24T07:58:42.824Z,31.4
2023-05-24T07:59:45.303Z,31.4
2023-05-24T08:00:58.344Z,31.4
2023-05-24T08:02:10.521Z,31.3
2023-05-24T08:03:13.971Z,31.3
2023-05-24T08:04:26.179Z,31.3
2023-05-24T08:05:40.396Z,31.3
2023-05-24T08:06:43.426Z,31.3
2023-05-24T08:07:56.312Z,31.3
2023-05-24T08:09:08.440Z,31.2
2023-05-24T08:10:21.346Z,31.3
2023-05-24T08:11:23.683Z,31.3
2023-05-24T08:12:36.845Z,31.3
2023-05-24T08:13:48.949Z,31.3
2023-05-24T08:14:51.829Z,31.3
2023-05-24T08:16:03.971Z,31.2
2023-05-24T08:17:16.842Z,31.1
2023-05-24T08:18:29.014Z,31.2
2023-05-24T08:19:32.344Z,31.2
2023-05-24T08:20:44.633Z,31.2
2023-05-24T08:21:57.806Z,31.2
2023-05-24T08:23:00.123Z,31.2
2023-05-24T08:24:13.309Z,31.1
2023-05-24T08:25:25.459Z,31.2
2023-05-24T08:26:38.382Z,31.2
2023-05-24T08:27:40.667Z,31.3
2023-05-24T08:28:53.345Z,31.3
2023-05-24T08:30:05.490Z,31.3
2023-05-24T08:31:18.373Z,31.3
2023-05-24T08:32:21.241Z,31.3
2023-05-24T08:33:34.292Z,31.2
2023-05-24T08:34:46.407Z,31.2
2023-05-24T08:35:49.325Z,31.2
2023-05-24T08:37:01.463Z,31.2
2023-05-24T08:38:14.323Z,31.2
2023-05-24T08:39:26.404Z,31.2
2023-05-24T08:40:29.336Z,31.2
2023-05-24T08:41:41.512Z,31.2
2023-05-24T08:42:54.333Z,31.2
2023-05-24T08:43:56.623Z,31.2
2023-05-24T08:45:09.353Z,31.3
2023-05-24T08:46:21.663Z,31.2
2023-05-24T08:47:36.261Z,31.1
2023-05-24T08:48:38.633Z,31.0
2023-05-24T08:49:51.328Z,31.0
2023-05-24T08:51:03.462Z,31.2
2023-05-24T08:52:06.317Z,31.1
2023-05-24T08:53:18.384Z,31.1
2023-05-24T08:54:31.348Z,31.1
2023-05-24T08:55:43.778Z,31.0
2023-05-24T08:56:47.324Z,31.1
2023-05-24T08:57:59.464Z,31.0
2023-05-24T08:59:12.310Z,31.1
2023-05-24T09:00:14.549Z,31.0
2023-05-24T09:01:30.541Z,31.0
2023-05-24T09:02:43.369Z,31.1
2023-05-24T09:03:47.833Z,31.1
2023-05-24T09:05:00.046Z,31.1
2023-05-24T09:06:12.821Z,31.0
2023-05-24T09:07:15.097Z,31.0
2023-05-24T09:08:27.872Z,31.0
2023-05-24T09:09:40.045Z,31.0
2023-05-24T09:10:55.779Z,30.9
2023-05-24T09:11:58.415Z,30.8
2023-05-24T09:13:11.356Z,30.9
2023-05-24T09:14:13.634Z,30.9
2023-05-24T09:15:26.366Z,30.8
2023-05-24T09:16:38.572Z,30.9
2023-05-24T09:17:51.891Z,30.9
2023-05-24T09:18:54.292Z,30.9
2023-05-24T09:20:08.937Z,30.7
2023-05-24T09:21:21.216Z,30.8
2023-05-24T09:22:25.835Z,30.9
2023-05-24T09:23:37.979Z,30.9
2023-05-24T09:24:50.848Z,31.0
2023-05-24T09:25:53.134Z,31.0
2023-05-24T09:27:05.897Z,31.0
2023-05-24T09:28:18.046Z,31.0
2023-05-24T09:29:30.842Z,31.0
2023-05-24T09:30:33.567Z,31.0
2023-05-24T09:31:46.422Z,31.0
2023-05-24T09:32:58.751Z,31.0
2023-05-24T09:34:01.846Z,31.1
2023-05-24T09:35:13.991Z,31.2
2023-05-24T09:36:28.372Z,31.2
2023-05-24T09:37:32.979Z,31.2
2023-05-24T09:38:46.353Z,31.1
2023-05-24T09:39:58.489Z,31.0
2023-05-24T09:41:01.868Z,30.9
2023-05-24T09:42:14.070Z,31.1
2023-05-24T09:43:26.840Z,31.0
2023-05-24T09:44:29.039Z,31.0
2023-05-24T09:45:42.352Z,31.0
2023-05-24T09:46:54.446Z,31.1
2023-05-24T09:48:07.433Z,31.1
2023-05-24T09:49:09.705Z,31.1
2023-05-24T09:50:22.376Z,31.1
2023-05-24T09:51:34.569Z,31.0
2023-05-24T09:52:47.343Z,31.0
2023-05-24T09:53:49.616Z,31.0
2023-05-24T09:55:02.339Z,31.0
2023-05-24T09:56:14.415Z,31.0
2023-05-24T09:57:17.353Z,31.1
2023-05-24T09:58:29.485Z,31.1
2023-05-24T09:59:42.893Z,31.1
2023-05-24T10:00:55.034Z,31.1
2023-05-24T10:01:57.858Z,31.1
2023-05-24T10:03:09.926Z,31.1
2023-05-24T10:04:22.894Z,31.1
2023-05-24T10:05:35.032Z,31.1
2023-05-24T10:06:37.874Z,31.2
2023-05-24T10:07:49.914Z,31.1
2023-05-24T10:09:02.875Z,31.1
2023-05-24T10:10:07.415Z,31.1
2023-05-24T10:11:20.359Z,31.1
2023-05-24T10:12:32.472Z,31.1
2023-05-24T10:13:35.391Z,31.0
2023-05-24T10:14:47.496Z,30.9
2023-05-24T10:16:00.372Z,30.8
2023-05-24T10:17:12.571Z,30.9
2023-05-24T10:18:15.378Z,30.8
2023-05-24T10:19:27.512Z,30.8
2023-05-24T10:20:40.616Z,30.8
2023-05-24T10:21:43.146Z,30.8
2023-05-24T10:22:56.350Z,30.8
2023-05-24T10:24:09.216Z,30.7
2023-05-24T10:25:21.870Z,30.8
2023-05-24T10:26:24.243Z,30.6
2023-05-24T10:27:37.390Z,30.7
2023-05-24T10:28:49.470Z,30.7
2023-05-24T10:29:52.367Z,30.7
2023-05-24T10:31:04.610Z,30.7
2023-05-24T10:32:17.378Z,30.6
2023-05-24T10:33:19.667Z,30.4
2023-05-24T10:34:32.357Z,30.5
2023-05-24T10:35:44.448Z,30.5
2023-05-24T10:36:57.401Z,30.5
2023-05-24T10:38:00.722Z,30.4
2023-05-24T10:39:13.371Z,30.3
2023-05-24T10:40:25.607Z,30.3
2023-05-24T10:41:38.887Z,30.5
2023-05-24T10:42:41.250Z,30.5
2023-05-24T10:44:08.789Z,30.4
2023-05-24T10:45:02.416Z,30.3
2023-05-24T10:46:15.407Z,30.4
2023-05-24T10:47:17.658Z,30.4
2023-05-24T10:48:30.380Z,30.6
2023-05-24T10:49:42.497Z,30.6
2023-05-24T10:50:55.364Z,30.4
2023-05-24T10:52:07.523Z,30.5
2023-05-24T10:53:10.399Z,30.6
2023-05-24T10:54:22.515Z,30.5
2023-05-24T10:55:35.383Z,30.4
2023-05-24T10:56:37.648Z,30.5
2023-05-24T10:57:50.861Z,30.6
2023-05-24T10:59:02.990Z,30.5
2023-05-24T11:00:07.838Z,30.5
2023-05-24T11:01:21.252Z,30.5
2023-05-24T11:02:34.389Z,30.7
2023-05-24T11:03:37.957Z,30.6
2023-05-24T11:04:50.893Z,30.6
2023-05-24T11:06:03.069Z,30.6
2023-05-24T11:07:07.866Z,30.4
2023-05-24T11:08:19.967Z,30.4
2023-05-24T11:09:32.909Z,30.4
2023-05-24T11:10:35.262Z,30.5
2023-05-24T11:11:48.373Z,30.7
2023-05-24T11:13:00.676Z,30.7
2023-05-24T11:14:03.883Z,30.6
2023-05-24T11:15:16.005Z,30.6
2023-05-24T11:16:28.890Z,30.7
2023-05-24T11:17:43.518Z,30.7
2023-05-24T11:18:46.875Z,30.7
2023-05-24T11:19:59.018Z,30.7
2023-05-24T11:21:11.866Z,30.7
2023-05-24T11:22:14.137Z,30.7
2023-05-24T11:23:26.891Z,30.7
2023-05-24T11:24:38.950Z,30.8
2023-05-24T11:25:41.893Z,30.9
2023-05-24T11:26:54.100Z,30.8
2023-05-24T11:28:06.930Z,30.8
2023-05-24T11:29:19.256Z,30.9
2023-05-24T11:30:22.408Z,30.8
2023-05-24T11:31:35.653Z,30.8
2023-05-24T11:32:42.357Z,30.9
2023-05-24T11:33:57.341Z,30.9
2023-05-24T11:35:10.186Z,30.9
2023-05-24T11:36:12.504Z,30.9
2023-05-24T11:37:38.562Z,31.0
2023-05-24T11:38:38.179Z,31.0
2023-05-24T11:39:40.528Z,31.0
2023-05-24T11:40:53.495Z,31.0
2023-05-24T11:42:06.022Z,30.9
2023-05-24T11:43:08.881Z,31.1
2023-05-24T11:44:20.916Z,31.1
2023-05-24T11:45:33.961Z,31.1
2023-05-24T11:46:46.139Z,31.1
2023-05-24T11:47:49.445Z,31.1
2023-05-24T11:49:01.706Z,31.2
2023-05-24T11:50:14.405Z,31.1
2023-05-24T11:51:16.652Z,31.1
2023-05-24T11:52:29.408Z,31.1
2023-05-24T11:53:41.599Z,31.2
2023-05-24T11:54:54.444Z,31.2
2023-05-24T11:55:56.693Z,31.2
2023-05-24T11:57:09.421Z,31.2
2023-05-24T11:58:21.669Z,31.2
2023-05-24T11:59:34.672Z,31.3
2023-05-24T12:00:36.938Z,31.3
2023-05-24T12:01:49.442Z,31.3
2023-05-24T12:03:01.473Z,31.3
2023-05-24T12:04:05.003Z,31.3
2023-05-24T12:05:17.290Z,31.2
2023-05-24T12:06:30.402Z,31.3
2023-05-24T12:07:32.735Z,31.3
2023-05-24T12:08:45.894Z,31.3
2023-05-24T12:09:58.017Z,31.3
2023-05-24T12:11:11.433Z,31.4
2023-05-24T12:12:13.714Z,31.4
2023-05-24T12:13:26.929Z,31.4
2023-05-24T12:14:39.126Z,31.4
2023-05-24T12:15:42.456Z,31.4
2023-05-24T12:16:54.644Z,31.4
2023-05-24T12:18:07.496Z,31.4
2023-05-24T12:19:31.646Z,31.5
2023-05-24T12:20:25.913Z,31.4
2023-05-24T12:21:37.951Z,31.4
2023-05-24T12:22:50.904Z,31.4
2023-05-24T12:23:53.135Z,31.5
2023-05-24T12:25:05.905Z,31.4
2023-05-24T12:26:18.008Z,31.4
2023-05-24T12:27:20.891Z,31.4
2023-05-24T12:28:32.990Z,31.4
2023-05-24T12:29:46.035Z,31.4
2023-05-24T12:30:58.108Z,31.4
2023-05-24T12:32:01.416Z,31.4
2023-05-24T12:33:13.547Z,31.4
2023-05-24T12:34:26.501Z,31.4
2023-05-24T12:35:28.746Z,31.4
2023-05-24T12:36:41.512Z,31.4
2023-05-24T12:37:53.607Z,31.5
2023-05-24T12:39:06.419Z,31.4
2023-05-24T12:40:08.484Z,31.5
2023-05-24T12:41:20.914Z,31.4
2023-05-24T12:42:42.497Z,31.4
2023-05-24T12:43:45.429Z,31.5
2023-05-24T12:44:47.656Z,31.4
2023-05-24T12:46:00.467Z,31.5
2023-05-24T12:47:12.577Z,31.4
2023-05-24T12:48:25.442Z,31.5
2023-05-24T12:49:27.636Z,31.3
2023-05-24T12:50:40.538Z,31.3
2023-05-24T12:51:53.011Z,31.4
2023-05-24T12:53:05.926Z,31.4
2023-05-24T12:54:08.171Z,31.5
2023-05-24T12:55:20.912Z,31.5
2023-05-24T12:56:33.104Z,31.5
2023-05-24T12:57:35.919Z,31.4
2023-05-24T12:58:47.994Z,31.4
2023-05-24T13:00:01.406Z,31.4
2023-05-24T13:01:23.196Z,31.4
2023-05-24T13:02:16.426Z,31.4
2023-05-24T13:03:28.511Z,31.4
2023-05-24T13:04:41.407Z,31.3
2023-05-24T13:05:53.575Z,31.2
2023-05-24T13:06:56.920Z,31.2
2023-05-24T13:08:09.002Z,31.3
2023-05-24T13:09:41.439Z,31.3
2023-05-24T13:10:23.972Z,31.3
2023-05-24T13:11:36.054Z,31.3
2023-05-24T13:12:48.947Z,31.2
2023-05-24T13:14:01.004Z,31.1
2023-05-24T13:15:03.907Z,31.0
2023-05-24T13:16:25.837Z,31.0
2023-05-24T13:17:28.970Z,30.9
2023-05-24T13:18:50.894Z,30.8
2023-05-24T13:19:43.936Z,30.9
2023-05-24T13:20:56.005Z,30.9
2023-05-24T13:22:08.920Z,31.0
2023-05-24T13:23:11.094Z,31.0
2023-05-24T13:24:23.932Z,31.1
2023-05-24T13:25:36.046Z,31.1
2023-05-24T13:26:50.095Z,31.1
2023-05-24T13:27:53.995Z,31.2
2023-05-24T13:29:26.669Z,31.2
2023-05-24T13:30:15.484Z,31.2
2023-05-24T13:31:27.612Z,31.2
2023-05-24T13:32:30.456Z,31.2
2023-05-24T13:33:42.562Z,31.2
2023-05-24T13:34:55.484Z,31.2
2023-05-24T13:36:07.668Z,31.2
2023-05-24T13:37:10.434Z,31.1
2023-05-24T13:38:22.820Z,31.1
2023-05-24T13:39:35.930Z,31.2
2023-05-24T13:40:48.040Z,31.3
2023-05-24T13:41:50.999Z,31.2
2023-05-24T13:43:13.105Z,31.3
2023-05-24T13:44:35.426Z,31.2
2023-05-24T13:45:17.890Z,31.3
2023-05-24T13:46:29.995Z,31.1
2023-05-24T13:48:02.485Z,31.0
2023-05-24T13:48:54.843Z,30.6
2023-05-24T13:49:56.953Z,30.6
2023-05-24T13:51:09.967Z,30.6
2023-05-24T13:52:22.110Z,30.7
2023-05-24T13:53:35.002Z,30.8
2023-05-24T13:54:38.072Z,30.7
2023-05-24T13:55:50.945Z,30.8
2023-05-24T13:57:02.942Z,30.9
2023-05-24T13:58:15.977Z,30.9
2023-05-24T13:59:27.787Z,30.9
2023-05-24T14:00:30.923Z,30.9
2023-05-24T14:01:42.997Z,30.9
2023-05-24T14:02:46.484Z,31.0
2023-05-24T14:03:58.632Z,31.0
2023-05-24T14:05:25.884Z,30.9
2023-05-24T14:06:20.066Z,30.9
2023-05-24T14:07:32.988Z,30.9
2023-05-24T14:08:35.172Z,30.9
2023-05-24T14:09:47.928Z,30.9
2023-05-24T14:10:59.958Z,30.9
2023-05-24T14:12:12.936Z,31.0
2023-05-24T14:15:40.708Z,30.9
2023-05-24T14:16:53.600Z,30.9
2023-05-24T14:17:56.035Z,31.0
2023-05-24T14:19:08.943Z,31.0
2023-05-24T14:20:21.009Z,31.0
2023-05-24T14:21:23.973Z,30.9
2023-05-24T14:22:36.651Z,30.8
2023-05-24T14:23:49.433Z,30.7
2023-05-24T14:24:51.682Z,30.8
2023-05-24T14:26:04.593Z,30.9
2023-05-24T14:27:16.614Z,30.9
2023-05-24T14:28:29.447Z,30.9
2023-05-24T14:29:31.669Z,31.0
2023-05-24T14:30:44.462Z,31.0
2023-05-24T14:31:56.613Z,31.0
2023-05-24T14:33:09.987Z,31.0
2023-05-24T14:34:12.307Z,31.0
2023-05-24T14:35:24.928Z,31.0
2023-05-24T14:36:37.010Z,31.2
2023-05-24T14:37:39.982Z,31.2
2023-05-24T14:38:52.082Z,31.0
2023-05-24T14:40:05.024Z,30.9
2023-05-24T14:41:17.168Z,30.9
2023-05-24T14:42:20.451Z,30.9
2023-05-24T14:43:32.656Z,31.1
2023-05-24T14:44:45.661Z,31.2
2023-05-24T14:45:48.080Z,31.1
2023-05-24T14:47:00.987Z,31.1
2023-05-24T14:48:13.322Z,31.1
2023-05-24T14:49:26.471Z,31.1
2023-05-24T14:50:28.636Z,31.1
2023-05-24T14:51:41.469Z,31.2
2023-05-24T14:52:55.343Z,31.3
2023-05-24T14:53:58.941Z,31.3
2023-05-24T14:55:11.538Z,31.4
2023-05-24T14:56:25.241Z,31.4
2023-05-24T14:57:27.826Z,31.4
2023-05-24T14:58:40.456Z,31.4
2023-05-24T14:59:52.575Z,31.4
2023-05-24T15:00:55.496Z,31.5
2023-05-24T15:02:07.502Z,31.4
2023-05-24T15:03:20.641Z,31.5
2023-05-24T15:04:32.759Z,31.5
2023-05-24T15:05:35.471Z,31.5
2023-05-24T15:06:47.452Z,31.6
2023-05-24T15:08:00.548Z,31.5
2023-05-24T15:09:12.556Z,31.5
2023-05-24T15:10:15.529Z,31.5
2023-05-24T15:11:27.687Z,31.5
2023-05-24T15:12:40.441Z,31.5
2023-05-24T15:13:42.621Z,31.6
2023-05-24T15:14:55.443Z,31.6
2023-05-24T15:16:07.480Z,31.5
2023-05-24T15:17:21.988Z,31.5
2023-05-24T15:18:24.390Z,31.5
2023-05-24T15:19:36.985Z,31.6
2023-05-24T15:20:49.295Z,31.6
2023-05-24T15:21:52.455Z,31.5
2023-05-24T15:23:04.474Z,31.5
2023-05-24T15:24:17.481Z,31.6
2023-05-24T15:25:29.619Z,31.5
2023-05-24T15:26:32.483Z,31.5
2023-05-24T15:27:44.613Z,31.6
2023-05-24T15:28:57.514Z,31.6
2023-05-24T15:30:09.478Z,31.5
2023-05-24T15:31:12.558Z,31.6
2023-05-24T15:32:24.670Z,31.6